Time;durP1;ratioP1;P1;durP2;ratioP2;P2;SDS_P1;SDS_P2;PMS_P1;PMS_P2;Temp;Humidity;BMP_temperature;BMP_pressure;BME280_temperature;BME280_humidity;BME280_pressure;Samples;Min_cycle;Max_cycle;Signal;HPM_P1;HPM_P2
2022/03/17 00:01:21;;;;;;;21.77;17.93;;;12.20;99.90;;;;;;5031546;28;20438;-69
2022/03/17 00:03:46;;;;;;;20.37;18.10;;;12.20;99.90;;;;;;5032955;28;20286;-72
2022/03/17 00:06:13;;;;;;;25.27;19.00;;;12.10;99.90;;;;;;5031249;28;20175;-70
2022/03/17 00:08:39;;;;;;;23.83;18.73;;;12.10;99.90;;;;;;5030816;28;20182;-69
2022/03/17 00:11:04;;;;;;;22.73;18.40;;;12.20;99.90;;;;;;5031898;28;20430;-71
2022/03/17 00:13:30;;;;;;;20.90;18.10;;;12.10;99.90;;;;;;5041119;28;20195;-67
2022/03/17 00:15:57;;;;;;;21.27;17.87;;;12.20;99.90;;;;;;5055738;28;20190;-69
2022/03/17 00:18:22;;;;;;;23.37;19.20;;;12.20;99.90;;;;;;5058334;28;20413;-68
2022/03/17 00:20:48;;;;;;;21.60;18.47;;;12.20;99.90;;;;;;5060049;28;20419;-69
2022/03/17 00:23:13;;;;;;;21.70;19.17;;;12.20;99.90;;;;;;5060301;28;20186;-68
2022/03/17 00:25:39;;;;;;;20.30;18.13;;;12.20;99.90;;;;;;5047191;28;20191;-70
2022/03/17 00:28:04;;;;;;;21.90;18.30;;;12.20;99.90;;;;;;5035125;28;20191;-70
2022/03/17 00:30:30;;;;;;;23.00;19.23;;;12.20;99.90;;;;;;5034869;28;20357;-70
2022/03/17 00:32:55;;;;;;;23.40;19.20;;;12.30;99.90;;;;;;5016978;28;20241;-69
2022/03/17 00:35:36;;;;;;;21.90;18.43;;;12.30;99.90;;;;;;5034896;28;20205;-72
2022/03/17 00:38:08;;;;;;;20.80;18.60;;;12.20;99.90;;;;;;5034486;28;20175;-71
2022/03/17 00:40:35;;;;;;;21.70;18.73;;;12.20;99.90;;;;;;5034792;28;20428;-70
2022/03/17 00:43:02;;;;;;;22.10;18.93;;;12.20;99.90;;;;;;5048913;28;20422;-71
2022/03/17 00:45:28;;;;;;;22.67;18.40;;;12.20;99.90;;;;;;5052425;28;20417;-69
2022/03/17 00:47:53;;;;;;;25.80;19.90;;;12.20;99.90;;;;;;5051327;28;20440;-71
2022/03/17 00:50:19;;;;;;;22.83;19.63;;;12.20;99.90;;;;;;5053299;28;20199;-66
2022/03/17 00:52:45;;;;;;;22.83;18.80;;;12.20;99.90;;;;;;5056311;28;20230;-70
2022/03/17 00:55:10;;;;;;;21.87;18.90;;;12.20;99.90;;;;;;5034986;28;20179;-70
2022/03/17 00:57:36;;;;;;;23.70;19.17;;;12.20;99.90;;;;;;5035077;28;20186;-70
2022/03/17 01:00:05;;;;;;;23.70;19.37;;;12.20;99.90;;;;;;5034441;28;20658;-71
2022/03/17 01:02:31;;;;;;;24.53;19.80;;;12.10;99.90;;;;;;5033987;28;20175;-69
2022/03/17 01:04:56;;;;;;;23.90;20.17;;;12.10;99.90;;;;;;5034283;28;20404;-71
2022/03/17 01:07:22;;;;;;;23.10;19.53;;;12.10;99.90;;;;;;5033702;28;20178;-70
2022/03/17 01:09:47;;;;;;;23.50;19.97;;;12.00;99.90;;;;;;5033820;28;20191;-71
2022/03/17 01:12:13;;;;;;;21.50;18.60;;;12.10;99.90;;;;;;5033662;28;20214;-70
2022/03/17 01:14:39;;;;;;;23.17;19.53;;;12.10;99.90;;;;;;5034525;28;20496;-71
2022/03/17 01:17:05;;;;;;;23.70;20.10;;;12.10;99.90;;;;;;5034634;28;20713;-71
2022/03/17 01:19:30;;;;;;;21.43;18.60;;;12.10;99.90;;;;;;5034995;28;20410;-71
2022/03/17 01:21:56;;;;;;;22.67;19.30;;;12.00;99.90;;;;;;5047688;28;20179;-68
2022/03/17 01:24:21;;;;;;;24.07;19.43;;;12.00;99.90;;;;;;5041682;28;20178;-69
2022/03/17 01:26:47;;;;;;;21.33;19.03;;;12.00;99.90;;;;;;5040959;28;20225;-68
2022/03/17 01:29:13;;;;;;;23.93;20.40;;;12.00;99.90;;;;;;5057519;28;20243;-69
2022/03/17 01:31:39;;;;;;;26.33;21.73;;;12.00;99.90;;;;;;5058785;28;20207;-68
2022/03/17 01:34:04;;;;;;;22.00;19.30;;;12.00;99.90;;;;;;5025148;28;20178;-71
2022/03/17 01:36:30;;;;;;;24.50;21.07;;;12.00;99.90;;;;;;5034160;28;20266;-70
2022/03/17 01:38:56;;;;;;;24.93;20.57;;;12.00;99.90;;;;;;5034645;28;20263;-70
2022/03/17 01:41:22;;;;;;;25.47;20.63;;;12.00;99.90;;;;;;5033898;28;20198;-70
2022/03/17 01:43:48;;;;;;;23.10;19.87;;;12.00;99.90;;;;;;5033415;28;20413;-72
2022/03/17 01:46:15;;;;;;;23.70;20.10;;;12.00;99.90;;;;;;5041710;28;20179;-72
2022/03/17 01:48:41;;;;;;;32.13;21.10;;;12.00;99.90;;;;;;5032268;28;20187;-69
2022/03/17 01:51:07;;;;;;;26.87;21.30;;;12.00;99.90;;;;;;5050631;28;20428;-70
2022/03/17 01:53:33;;;;;;;23.40;20.43;;;12.00;99.90;;;;;;5032800;28;20456;-70
2022/03/17 01:56:00;;;;;;;26.10;21.00;;;12.00;99.90;;;;;;5058800;28;20505;-67
2022/03/17 01:58:26;;;;;;;25.20;21.83;;;12.00;99.90;;;;;;5037903;28;20250;-70
2022/03/17 02:00:52;;;;;;;26.27;20.30;;;12.00;99.90;;;;;;5033424;28;20461;-70
2022/03/17 02:03:18;;;;;;;23.33;20.17;;;12.00;99.90;;;;;;5033046;28;20194;-70
2022/03/17 02:05:43;;;;;;;25.60;21.00;;;12.10;99.90;;;;;;5032923;28;20197;-70
2022/03/17 02:08:10;;;;;;;22.73;20.03;;;12.10;99.90;;;;;;5015243;28;20418;-69
2022/03/17 02:13:21;;;;;;;25.63;20.50;;;12.10;99.90;;;;;;5032454;28;20476;-70
2022/03/17 02:15:52;;;;;;;23.17;19.50;;;12.10;99.90;;;;;;5032660;28;20757;-70
2022/03/17 02:18:18;;;;;;;22.63;20.13;;;12.10;99.90;;;;;;5032961;28;20946;-70
2022/03/17 02:20:44;;;;;;;27.73;22.30;;;12.10;99.90;;;;;;5032852;28;20433;-70
2022/03/17 02:26:04;;;;;;;28.70;21.03;;;12.00;99.90;;;;;;5032803;28;20404;-70
2022/03/17 02:28:32;;;;;;;26.10;20.50;;;12.10;99.90;;;;;;5014716;28;20413;-69
2022/03/17 02:30:58;;;;;;;26.03;21.23;;;12.10;99.90;;;;;;5032260;28;20468;-71
2022/03/17 02:33:25;;;;;;;25.83;20.73;;;12.10;99.90;;;;;;5014522;28;20461;-70
2022/03/17 02:35:53;;;;;;;26.43;20.70;;;12.00;99.90;;;;;;5032319;28;20406;-70
2022/03/17 02:38:20;;;;;;;24.00;21.40;;;12.00;99.90;;;;;;5032018;28;20402;-71
2022/03/17 02:40:52;;;;;;;24.00;19.97;;;12.00;99.90;;;;;;5031504;28;20448;-70
2022/03/17 02:43:18;;;;;;;25.03;20.73;;;12.00;99.90;;;;;;5033121;28;20418;-71
2022/03/17 02:45:45;;;;;;;25.40;21.23;;;12.00;99.90;;;;;;5032488;28;20410;-69
2022/03/17 02:48:11;;;;;;;25.20;21.40;;;12.00;99.90;;;;;;5032081;28;20414;-70
2022/03/17 02:50:36;;;;;;;25.70;21.30;;;12.00;99.90;;;;;;5032074;28;20448;-69
2022/03/17 02:53:09;;;;;;;25.57;22.50;;;12.00;99.90;;;;;;5031985;28;20452;-70
2022/03/17 02:55:36;;;;;;;27.10;20.17;;;12.00;99.90;;;;;;5032131;28;20194;-69
2022/03/17 02:58:04;;;;;;;25.40;21.80;;;12.00;99.90;;;;;;5032209;28;20463;-70
2022/03/17 03:00:29;;;;;;;23.33;19.90;;;12.00;99.90;;;;;;5032194;28;20422;-70
2022/03/17 03:02:55;;;;;;;25.40;22.03;;;12.00;99.90;;;;;;5032037;28;20524;-70
2022/03/17 03:05:21;;;;;;;23.90;20.80;;;12.00;99.90;;;;;;5032106;28;20264;-70
2022/03/17 03:07:47;;;;;;;25.03;21.37;;;12.00;99.90;;;;;;5031644;28;20220;-71
2022/03/17 03:10:12;;;;;;;25.73;21.47;;;12.00;99.90;;;;;;5031879;28;20860;-70
2022/03/17 03:12:38;;;;;;;25.70;21.70;;;12.00;99.90;;;;;;5031394;28;20537;-70
2022/03/17 03:15:04;;;;;;;26.00;21.30;;;12.00;99.90;;;;;;5031873;28;20177;-70
2022/03/17 03:17:29;;;;;;;26.53;21.30;;;12.00;99.90;;;;;;5031661;28;20548;-70
2022/03/17 03:19:55;;;;;;;24.60;20.53;;;12.10;99.90;;;;;;5031613;28;20191;-70
2022/03/17 03:22:21;;;;;;;26.83;21.60;;;12.00;99.90;;;;;;5031450;28;20170;-70
2022/03/17 03:24:46;;;;;;;28.80;23.40;;;12.00;99.90;;;;;;5031799;28;20167;-70
2022/03/17 03:27:12;;;;;;;24.30;20.83;;;12.10;99.90;;;;;;5031628;28;20365;-70
2022/03/17 03:29:38;;;;;;;25.93;21.40;;;12.10;99.90;;;;;;5031384;28;20214;-70
2022/03/17 03:32:04;;;;;;;27.40;23.03;;;12.10;99.90;;;;;;5031529;28;20191;-71
2022/03/17 03:34:31;;;;;;;29.70;23.30;;;12.10;99.90;;;;;;5031735;28;20175;-70
2022/03/17 03:39:41;;;;;;;26.50;21.87;;;12.10;99.90;;;;;;5032124;28;20429;-69
2022/03/17 03:42:08;;;;;;;26.27;21.97;;;12.10;99.90;;;;;;5031271;28;20413;-69
2022/03/17 03:44:34;;;;;;;24.87;22.20;;;12.10;99.90;;;;;;5031442;28;20221;-69
2022/03/17 03:47:00;;;;;;;27.83;23.47;;;12.10;99.90;;;;;;5031611;28;20412;-69
2022/03/17 03:49:25;;;;;;;26.70;23.23;;;12.10;99.90;;;;;;5031600;28;20413;-70
2022/03/17 03:51:51;;;;;;;24.67;21.50;;;12.10;99.90;;;;;;5032755;28;20175;-69
2022/03/17 03:54:17;;;;;;;29.80;23.20;;;12.00;99.90;;;;;;5035334;28;20635;-68
2022/03/17 03:56:50;;;;;;;28.77;22.33;;;12.00;99.90;;;;;;5035597;28;20256;-69
2022/03/17 03:59:20;;;;;;;28.03;22.83;;;12.00;99.90;;;;;;5035337;28;20412;-70
2022/03/17 04:01:49;;;;;;;26.70;22.40;;;12.00;99.90;;;;;;5034884;28;20405;-69
2022/03/17 04:04:17;;;;;;;26.00;22.20;;;12.00;99.90;;;;;;5034996;28;20995;-69
2022/03/17 04:06:45;;;;;;;26.90;23.20;;;12.00;99.90;;;;;;5035315;28;20409;-70
2022/03/17 04:09:12;;;;;;;24.87;21.53;;;12.00;99.90;;;;;;5034749;28;20409;-70
2022/03/17 04:11:38;;;;;;;28.20;21.70;;;12.00;99.90;;;;;;5016933;28;20444;-70
2022/03/17 04:14:04;;;;;;;26.17;22.80;;;12.10;99.90;;;;;;5035068;28;20457;-70
2022/03/17 04:16:29;;;;;;;26.40;22.33;;;12.10;99.90;;;;;;5034316;28;20781;-70
2022/03/17 04:18:55;;;;;;;25.73;22.30;;;12.10;99.90;;;;;;5034917;28;20174;-71
2022/03/17 04:21:20;;;;;;;26.90;22.50;;;12.10;99.90;;;;;;5034548;28;20287;-70
2022/03/17 04:23:46;;;;;;;26.63;22.80;;;12.10;99.90;;;;;;5034658;28;20670;-70
2022/03/17 04:26:11;;;;;;;30.00;22.40;;;12.10;99.90;;;;;;5034993;28;20175;-69
2022/03/17 04:28:37;;;;;;;27.77;23.30;;;12.20;99.90;;;;;;5042398;28;20190;-71
2022/03/17 04:31:03;;;;;;;29.17;24.20;;;12.20;99.90;;;;;;5069237;22;20225;-68
2022/03/17 04:33:29;;;;;;;27.90;22.60;;;12.10;99.90;;;;;;5055457;28;20201;-69
2022/03/17 04:35:55;;;;;;;29.60;25.30;;;12.20;99.90;;;;;;5056249;28;20413;-69
2022/03/17 04:38:22;;;;;;;28.80;23.70;;;12.10;99.90;;;;;;5057153;28;20212;-69
2022/03/17 04:40:49;;;;;;;30.50;23.63;;;12.10;99.90;;;;;;5038438;28;20419;-69
2022/03/17 04:43:19;;;;;;;28.47;23.50;;;12.20;99.90;;;;;;5056172;28;20408;-69
2022/03/17 04:45:46;;;;;;;28.10;22.33;;;12.10;99.90;;;;;;5038748;28;20486;-68
2022/03/17 04:48:12;;;;;;;28.80;22.37;;;12.20;99.90;;;;;;5056063;28;20959;-69
2022/03/17 04:50:38;;;;;;;28.13;23.57;;;12.10;99.90;;;;;;5056018;28;20461;-69
2022/03/17 04:55:47;;;;;;;29.23;23.67;;;12.10;99.90;;;;;;5057829;28;20660;-70
2022/03/17 04:58:13;;;;;;;30.27;25.33;;;12.00;99.90;;;;;;5058457;28;20511;-70
2022/03/17 05:00:40;;;;;;;28.50;24.63;;;12.00;99.90;;;;;;5039235;28;20190;-68
2022/03/17 05:03:05;;;;;;;30.00;24.20;;;12.00;99.90;;;;;;5055163;28;20404;-69
2022/03/17 05:05:32;;;;;;;31.47;24.07;;;12.00;99.90;;;;;;5055995;28;20425;-68
2022/03/17 05:07:57;;;;;;;32.10;25.03;;;12.00;99.90;;;;;;5057469;28;20170;-69
2022/03/17 05:10:23;;;;;;;30.37;25.60;;;11.90;99.90;;;;;;5058533;28;20440;-68
2022/03/17 05:12:49;;;;;;;31.87;25.70;;;11.90;99.90;;;;;;5055660;28;20597;-68
2022/03/17 05:15:16;;;;;;;32.23;24.70;;;11.80;99.90;;;;;;5055956;28;20404;-69
2022/03/17 05:17:41;;;;;;;32.30;26.20;;;11.80;99.90;;;;;;5038158;28;20555;-68
2022/03/17 05:20:12;;;;;;;32.60;26.30;;;11.80;99.90;;;;;;5055779;28;20436;-69
2022/03/17 05:22:39;;;;;;;34.20;27.03;;;11.70;99.90;;;;;;5036633;28;20190;-68
2022/03/17 05:25:06;;;;;;;33.87;27.60;;;11.60;99.90;;;;;;5054548;28;20470;-69
2022/03/17 05:27:34;;;;;;;37.77;27.33;;;11.60;99.90;;;;;;5054172;28;20420;-69
2022/03/17 05:30:00;;;;;;;36.10;26.87;;;11.60;99.90;;;;;;5053912;28;20884;-69
2022/03/17 05:32:25;;;;;;;33.87;26.70;;;11.60;99.90;;;;;;5053895;28;20496;-69
2022/03/17 05:34:51;;;;;;;33.03;25.07;;;11.60;99.90;;;;;;5053946;28;20170;-69
2022/03/17 05:37:16;;;;;;;36.03;29.13;;;11.60;99.90;;;;;;5054448;28;20231;-68
2022/03/17 05:39:42;;;;;;;37.07;29.47;;;11.60;99.90;;;;;;5054055;28;20560;-68
2022/03/17 05:42:07;;;;;;;38.20;27.50;;;11.60;99.90;;;;;;5053596;28;20267;-69
2022/03/17 05:44:33;;;;;;;34.37;26.60;;;11.60;99.90;;;;;;5053759;28;20253;-68
2022/03/17 05:47:00;;;;;;;35.13;28.43;;;11.50;99.90;;;;;;5054021;28;20297;-69
2022/03/17 05:49:25;;;;;;;36.20;27.67;;;11.50;99.90;;;;;;5036086;28;20170;-68
2022/03/17 05:51:50;;;;;;;32.80;26.43;;;11.50;99.90;;;;;;5053288;28;20436;-68
2022/03/17 05:54:16;;;;;;;39.90;29.40;;;11.50;99.90;;;;;;5053726;28;20635;-68
2022/03/17 05:56:41;;;;;;;37.47;28.83;;;11.50;99.90;;;;;;5053583;28;20197;-69
2022/03/17 05:59:07;;;;;;;36.80;28.67;;;11.50;99.90;;;;;;5053460;28;20174;-68
2022/03/17 06:01:33;;;;;;;41.90;29.50;;;11.50;99.90;;;;;;5053712;28;20671;-67
2022/03/17 06:03:58;;;;;;;37.33;28.70;;;11.40;99.90;;;;;;5035224;28;20535;-68
2022/03/17 06:06:23;;;;;;;37.83;29.37;;;11.40;99.90;;;;;;5053207;28;20166;-69
2022/03/17 06:08:49;;;;;;;38.73;30.43;;;11.40;99.90;;;;;;5052990;28;20216;-68
2022/03/17 06:11:14;;;;;;;46.57;32.03;;;11.30;99.90;;;;;;5053222;28;20209;-69
2022/03/17 06:13:43;;;;;;;41.40;31.73;;;11.10;99.90;;;;;;5052783;28;20205;-68
2022/03/17 06:16:09;;;;;;;41.77;30.77;;;11.10;99.90;;;;;;5052068;28;20184;-68
2022/03/17 06:18:35;;;;;;;43.57;31.67;;;11.10;99.90;;;;;;5053238;28;20952;-68
2022/03/17 06:21:00;;;;;;;40.43;31.50;;;11.10;99.90;;;;;;5053217;28;20198;-68
2022/03/17 06:23:26;;;;;;;41.80;31.90;;;11.00;99.90;;;;;;5052575;28;20265;-68
2022/03/17 06:25:51;;;;;;;40.60;30.30;;;11.10;99.90;;;;;;5053142;28;20232;-70
2022/03/17 06:28:18;;;;;;;41.50;30.77;;;11.00;99.90;;;;;;5053467;28;20186;-69
2022/03/17 06:30:44;;;;;;;36.27;28.73;;;11.00;99.90;;;;;;5052672;28;20206;-68
2022/03/17 06:33:10;;;;;;;37.37;28.53;;;11.00;99.90;;;;;;5052197;28;20482;-68
2022/03/17 06:35:36;;;;;;;38.67;28.57;;;10.90;99.90;;;;;;5053138;28;20426;-69
2022/03/17 06:38:04;;;;;;;36.43;28.40;;;11.00;99.90;;;;;;5035286;28;20425;-68
2022/03/17 06:40:30;;;;;;;32.83;25.23;;;10.90;99.90;;;;;;5052778;28;20432;-71
2022/03/17 06:42:57;;;;;;;35.97;26.70;;;11.00;99.90;;;;;;5052960;28;20453;-70
2022/03/17 06:45:23;;;;;;;36.87;25.43;;;10.90;99.90;;;;;;5052799;28;20441;-68
2022/03/17 06:47:49;;;;;;;36.27;24.70;;;11.00;99.90;;;;;;5034738;28;20437;-68
2022/03/17 06:50:17;;;;;;;31.53;24.87;;;10.90;99.90;;;;;;5052625;28;20441;-68
2022/03/17 06:52:43;;;;;;;36.57;24.83;;;11.00;99.90;;;;;;5034401;28;20452;-68
2022/03/17 06:55:09;;;;;;;29.50;23.57;;;10.90;99.90;;;;;;5052449;28;20471;-69
2022/03/17 06:57:35;;;;;;;28.87;22.60;;;10.90;99.90;;;;;;5052666;28;20470;-69
2022/03/17 07:00:05;;;;;;;26.07;20.57;;;10.90;99.90;;;;;;5052620;28;20922;-69
2022/03/17 07:02:31;;;;;;;24.73;18.27;;;10.80;99.90;;;;;;5035094;28;20264;-68
2022/03/17 07:04:56;;;;;;;24.77;18.83;;;10.60;99.90;;;;;;5054147;28;20979;-68
2022/03/17 07:07:23;;;;;;;22.30;17.60;;;10.70;99.90;;;;;;5054226;28;20213;-69
2022/03/17 07:09:49;;;;;;;22.30;17.77;;;10.60;99.90;;;;;;5053173;28;20175;-68
2022/03/17 07:12:14;;;;;;;21.60;17.20;;;10.50;99.90;;;;;;5052904;28;21068;-68
2022/03/17 07:14:40;;;;;;;23.63;18.43;;;10.50;99.90;;;;;;5035311;28;20174;-69
2022/03/17 07:17:06;;;;;;;24.73;18.70;;;10.50;99.90;;;;;;5035266;28;20181;-68
2022/03/17 07:19:32;;;;;;;22.63;18.03;;;10.50;99.90;;;;;;5053050;28;20263;-68
2022/03/17 07:21:58;;;;;;;23.97;18.13;;;10.50;99.90;;;;;;5035473;28;20201;-68
2022/03/17 07:24:23;;;;;;;27.27;19.20;;;10.50;99.90;;;;;;5053663;28;20404;-68
2022/03/17 07:26:49;;;;;;;23.93;18.77;;;10.50;99.90;;;;;;5052150;28;20478;-70
2022/03/17 07:29:14;;;;;;;24.27;18.80;;;10.30;99.90;;;;;;5054397;28;20220;-70
2022/03/17 07:31:40;;;;;;;27.13;18.80;;;10.30;99.90;;;;;;5060969;28;20312;-68
2022/03/17 07:34:05;;;;;;;24.93;19.00;;;10.00;99.90;;;;;;5056892;28;20575;-68
2022/03/17 07:36:31;;;;;;;28.97;19.47;;;10.00;99.90;;;;;;5069368;28;20214;-68
2022/03/17 07:38:58;;;;;;;26.57;19.53;;;10.00;99.90;;;;;;5062620;28;20220;-68
2022/03/17 07:41:24;;;;;;;29.80;20.27;;;9.90;99.90;;;;;;5058126;28;20202;-69
2022/03/17 07:43:50;;;;;;;26.53;18.30;;;9.70;99.90;;;;;;5066554;28;20432;-69
2022/03/17 07:46:17;;;;;;;29.17;18.67;;;9.60;99.90;;;;;;5051644;28;20523;-68
2022/03/17 07:48:43;;;;;;;28.47;19.90;;;9.60;99.90;;;;;;5050508;28;20432;-67
2022/03/17 07:51:09;;;;;;;26.07;18.87;;;9.60;99.90;;;;;;5050825;28;20803;-68
2022/03/17 07:53:35;;;;;;;25.40;18.47;;;9.70;99.90;;;;;;5050747;28;20549;-68
2022/03/17 07:56:02;;;;;;;24.50;17.20;;;9.70;99.90;;;;;;5050461;28;20428;-69
2022/03/17 07:58:27;;;;;;;22.80;16.30;;;9.60;99.90;;;;;;5051112;28;20209;-68
2022/03/17 08:00:56;;;;;;;27.40;18.57;;;9.40;99.90;;;;;;5054881;28;20931;-68
2022/03/17 08:03:22;;;;;;;29.73;18.47;;;9.50;99.90;;;;;;5052133;28;20209;-68
2022/03/17 08:05:49;;;;;;;29.57;20.20;;;9.50;99.90;;;;;;5052279;28;20867;-69
2022/03/17 08:08:19;;;;;;;36.30;22.83;;;9.40;99.90;;;;;;5051955;28;20497;-69
2022/03/17 08:10:45;;;;;;;32.77;23.80;;;9.40;99.90;;;;;;5069192;28;20799;-68
2022/03/17 08:13:11;;;;;;;40.77;26.90;;;9.20;99.90;;;;;;5049955;28;20566;-69
2022/03/17 08:15:37;;;;;;;27.80;19.57;;;9.20;99.90;;;;;;5050937;28;20446;-69
2022/03/17 08:18:07;;;;;;;22.67;15.97;;;9.10;99.90;;;;;;5050491;28;20462;-68
2022/03/17 08:20:35;;;;;;;25.97;16.07;;;8.80;99.90;;;;;;5051008;28;20440;-68
2022/03/17 08:23:01;;;;;;;29.10;14.90;;;8.60;99.90;;;;;;5050413;28;20456;-69
2022/03/17 08:25:27;;;;;;;17.93;13.70;;;8.60;99.90;;;;;;5050565;28;21151;-68
2022/03/17 08:27:54;;;;;;;18.20;13.13;;;8.70;99.90;;;;;;5050838;28;20213;-69
2022/03/17 08:30:20;;;;;;;22.50;11.93;;;8.80;99.90;;;;;;5041322;28;20226;-68
2022/03/17 08:32:46;;;;;;;15.23;10.73;;;8.90;99.90;;;;;;5071659;28;20449;-68
2022/03/17 08:35:13;;;;;;;15.93;11.50;;;8.80;99.90;;;;;;5071408;28;20411;-69
2022/03/17 08:37:42;;;;;;;14.53;10.40;;;8.80;99.90;;;;;;5053873;28;20178;-67
2022/03/17 08:40:09;;;;;;;18.33;12.73;;;8.70;99.90;;;;;;5074421;28;20482;-67
2022/03/17 08:42:35;;;;;;;21.10;12.17;;;8.80;99.90;;;;;;5075064;28;20419;-72
2022/03/17 08:45:01;;;;;;;17.10;12.40;;;8.90;99.90;;;;;;5057327;28;20412;-69
2022/03/17 08:50:10;;;;;;;18.37;14.50;;;8.80;99.90;;;;;;5071157;28;20435;-69
2022/03/17 08:52:36;;;;;;;22.87;15.20;;;8.80;99.90;;;;;;5054339;28;20456;-69
2022/03/17 08:55:02;;;;;;;19.93;14.53;;;8.90;99.90;;;;;;5054836;28;20178;-68
2022/03/17 08:57:28;;;;;;;24.10;15.70;;;9.00;99.90;;;;;;5036999;28;20170;-70
2022/03/17 08:59:53;;;;;;;19.73;13.57;;;9.00;99.90;;;;;;5036928;28;20461;-69
2022/03/17 09:02:19;;;;;;;18.03;14.40;;;9.10;99.90;;;;;;5036244;28;20539;-69
2022/03/17 09:04:45;;;;;;;20.53;13.60;;;9.20;99.90;;;;;;5054968;28;20178;-70
2022/03/17 09:07:11;;;;;;;19.77;13.40;;;9.20;99.90;;;;;;5054430;28;20240;-69
2022/03/17 09:09:38;;;;;;;17.37;13.13;;;9.30;99.90;;;;;;5055149;28;20177;-70
2022/03/17 09:12:07;;;;;;;18.97;12.20;;;9.30;99.90;;;;;;5017104;28;20442;-69
2022/03/17 09:14:33;;;;;;;17.50;12.63;;;9.40;99.90;;;;;;5035016;28;20413;-69
2022/03/17 09:16:59;;;;;;;18.70;13.20;;;9.30;99.90;;;;;;5034800;28;20405;-69
2022/03/17 09:19:25;;;;;;;19.43;13.20;;;9.10;99.90;;;;;;5034362;28;20913;-70
2022/03/17 09:21:51;;;;;;;18.10;13.33;;;9.00;99.90;;;;;;5033464;28;20243;-69
2022/03/17 09:24:17;;;;;;;21.87;15.27;;;8.90;99.90;;;;;;5016860;28;20543;-69
2022/03/17 09:26:42;;;;;;;23.00;13.93;;;8.80;99.90;;;;;;5034322;28;20410;-70
2022/03/17 09:29:08;;;;;;;16.23;11.13;;;9.00;99.90;;;;;;5032710;28;20171;-69
2022/03/17 09:31:33;;;;;;;18.20;10.80;;;9.10;99.90;;;;;;5034156;28;20218;-67
2022/03/17 09:33:59;;;;;;;13.57;9.93;;;9.00;99.90;;;;;;5033548;28;20659;-68
2022/03/17 09:36:24;;;;;;;12.07;7.03;;;9.20;99.90;;;;;;5035632;28;20167;-69
2022/03/17 09:41:35;;;;;;;8.40;7.20;;;8.90;99.90;;;;;;5035121;28;20203;-69
2022/03/17 09:44:02;;;;;;;7.83;6.80;;;9.10;99.90;;;;;;5034571;28;20467;-70
2022/03/17 09:46:29;;;;;;;6.23;5.50;;;9.20;99.90;;;;;;5033925;28;20413;-70
2022/03/17 09:48:56;;;;;;;9.30;6.20;;;9.40;99.90;;;;;;5033544;28;20413;-68
2022/03/17 09:51:26;;;;;;;9.57;6.70;;;9.40;99.90;;;;;;5034955;28;20436;-70
2022/03/17 09:53:53;;;;;;;8.87;6.53;;;9.20;99.90;;;;;;5035724;28;20467;-71
2022/03/17 09:56:23;;;;;;;8.83;5.80;;;9.00;99.90;;;;;;5035564;28;20398;-69
2022/03/17 09:58:53;;;;;;;7.37;5.77;;;8.90;99.90;;;;;;5035224;28;20819;-69
2022/03/17 10:01:21;;;;;;;6.70;5.97;;;8.80;99.90;;;;;;5034522;28;20782;-69
2022/03/17 10:03:46;;;;;;;10.47;6.70;;;8.90;99.90;;;;;;5034143;28;21122;-69
2022/03/17 10:06:14;;;;;;;12.00;6.83;;;8.90;99.90;;;;;;5033903;28;20463;-70
2022/03/17 10:08:41;;;;;;;7.83;6.03;;;9.10;99.90;;;;;;5033153;28;20409;-68
2022/03/17 10:11:07;;;;;;;9.67;5.30;;;9.20;99.90;;;;;;5015269;28;20445;-68
2022/03/17 10:13:43;;;;;;;9.67;6.83;;;9.20;99.90;;;;;;5032476;28;20468;-68
2022/03/17 10:16:17;;;;;;;8.53;6.53;;;9.30;99.90;;;;;;5031729;28;20167;-69
2022/03/17 10:18:45;;;;;;;7.33;6.30;;;9.30;99.90;;;;;;5033088;28;20411;-68
2022/03/17 10:21:12;;;;;;;9.47;6.47;;;9.20;99.90;;;;;;5015117;28;20462;-68
2022/03/17 10:24:08;;;;;;;12.00;6.50;;;9.10;99.90;;;;;;5033713;28;20778;-68
2022/03/17 10:26:40;;;;;;;9.20;6.23;;;9.10;99.90;;;;;;4953141;29;20814;-68
2022/03/17 10:29:22;;;;;;;13.73;6.60;;;9.20;99.90;;;;;;4952394;29;20425;-68
2022/03/17 10:31:50;;;;;;;9.53;7.00;;;9.30;99.90;;;;;;4951935;29;20464;-69
2022/03/17 10:34:17;;;;;;;8.70;6.67;;;9.40;99.90;;;;;;4951714;29;20993;-68
2022/03/17 10:36:45;;;;;;;10.50;6.17;;;9.50;99.90;;;;;;4953887;28;20427;-69
2022/03/17 10:39:11;;;;;;;11.37;7.33;;;9.40;99.90;;;;;;4971508;28;20428;-69
2022/03/17 10:41:44;;;;;;;13.77;6.47;;;9.50;99.90;;;;;;4971711;28;20443;-68
2022/03/17 10:44:15;;;;;;;10.10;6.93;;;9.50;99.90;;;;;;4971230;28;20188;-69
2022/03/17 10:47:01;;;;;;;7.60;6.43;;;9.60;99.90;;;;;;4971762;28;20565;-69
2022/03/17 10:49:27;;;;;;;8.80;6.20;;;9.60;99.90;;;;;;4971099;28;20499;-69
2022/03/17 10:51:55;;;;;;;8.67;7.03;;;9.80;99.90;;;;;;4954798;28;21241;-69
2022/03/17 10:54:21;;;;;;;9.63;8.30;;;9.90;99.90;;;;;;4970995;28;20507;-69
2022/03/17 10:57:05;;;;;;;10.13;9.13;;;9.90;99.90;;;;;;4971223;28;20419;-69
2022/03/17 10:59:42;;;;;;;11.73;9.50;;;9.90;99.90;;;;;;4970958;28;20415;-69
2022/03/17 11:02:09;;;;;;;13.20;9.90;;;9.80;99.90;;;;;;4986855;28;20427;-70
2022/03/17 11:04:40;;;;;;;18.00;10.67;;;9.70;99.90;;;;;;5072473;28;20407;-69
2022/03/17 11:07:11;;;;;;;11.90;8.63;;;9.60;99.90;;;;;;5072391;28;20493;-69
2022/03/17 11:09:40;;;;;;;14.80;8.60;;;9.50;99.90;;;;;;5057310;28;20419;-69
2022/03/17 11:12:11;;;;;;;11.07;7.40;;;9.50;99.90;;;;;;5074572;28;20439;-69
2022/03/17 11:14:45;;;;;;;10.60;6.03;;;9.50;99.90;;;;;;5073006;28;20486;-70
2022/03/17 11:17:18;;;;;;;10.07;7.83;;;9.50;99.90;;;;;;5072569;28;20407;-69
2022/03/17 11:19:45;;;;;;;17.77;7.47;;;9.40;99.90;;;;;;5072872;28;20411;-69
2022/03/17 11:22:15;;;;;;;12.37;6.60;;;9.30;99.90;;;;;;5073500;28;20807;-67
2022/03/17 11:24:41;;;;;;;10.63;7.37;;;9.40;99.90;;;;;;5072447;28;20827;-68
2022/03/17 11:27:14;;;;;;;10.60;7.27;;;9.50;99.90;;;;;;5072173;28;20403;-68
2022/03/17 11:29:48;;;;;;;16.80;8.33;;;9.60;99.90;;;;;;5072064;28;20406;-67
2022/03/17 11:32:29;;;;;;;8.90;6.60;;;9.50;99.90;;;;;;5071400;28;20447;-68
2022/03/17 11:35:10;;;;;;;9.00;6.67;;;9.40;99.90;;;;;;5068038;28;20771;-69
2022/03/17 11:37:36;;;;;;;10.43;7.37;;;9.50;99.90;;;;;;5052369;28;20439;-68
2022/03/17 11:40:06;;;;;;;11.40;7.93;;;9.40;99.90;;;;;;5051984;28;20404;-67
2022/03/17 11:42:38;;;;;;;9.93;8.20;;;9.50;99.90;;;;;;5051034;28;20411;-68
2022/03/17 11:45:13;;;;;;;13.37;9.80;;;9.60;99.90;;;;;;5033444;28;20492;-69
2022/03/17 11:47:50;;;;;;;17.73;11.27;;;9.60;99.90;;;;;;5051718;28;20505;-68
2022/03/17 11:50:23;;;;;;;18.50;10.97;;;9.40;99.90;;;;;;5051833;28;20458;-68
2022/03/17 11:53:19;;;;;;;17.33;11.93;;;9.30;99.90;;;;;;5051366;28;20976;-69
2022/03/17 11:55:49;;;;;;;19.53;13.47;;;9.40;99.90;;;;;;5034074;28;20412;-69
2022/03/17 11:58:21;;;;;;;19.73;11.93;;;9.50;99.90;;;;;;5051765;28;20407;-69
2022/03/17 12:00:52;;;;;;;18.13;11.37;;;9.40;99.90;;;;;;5051330;28;20435;-68
2022/03/17 12:03:28;;;;;;;13.63;10.37;;;9.40;99.90;;;;;;5033281;28;20420;-69
2022/03/17 12:06:11;;;;;;;16.93;9.97;;;9.50;99.90;;;;;;5054592;28;20416;-69
2022/03/17 12:09:03;;;;;;;13.60;9.33;;;9.50;99.90;;;;;;5052785;28;20447;-68
2022/03/17 12:11:36;;;;;;;14.97;9.10;;;9.60;99.90;;;;;;5051711;28;20956;-69
2022/03/17 12:14:24;;;;;;;10.03;7.70;;;9.70;99.90;;;;;;5055419;28;20448;-68
2022/03/17 12:16:59;;;;;;;8.07;7.00;;;9.90;99.90;;;;;;5037845;28;20423;-69
2022/03/17 12:19:39;;;;;;;13.10;7.73;;;9.80;99.90;;;;;;5056148;28;20433;-69
2022/03/17 12:22:12;;;;;;;11.70;7.47;;;9.80;99.90;;;;;;5056387;28;20433;-69
2022/03/17 12:24:51;;;;;;;10.13;7.00;;;9.80;99.90;;;;;;5057167;28;20920;-69
2022/03/17 12:27:20;;;;;;;11.97;6.93;;;9.80;99.90;;;;;;5056781;28;20411;-69
2022/03/17 12:29:56;;;;;;;10.03;5.57;;;9.80;99.90;;;;;;5056568;28;20404;-69
2022/03/17 12:32:24;;;;;;;9.30;5.07;;;9.90;99.90;;;;;;5056162;28;20509;-69
2022/03/17 12:34:51;;;;;;;7.90;4.67;;;10.10;99.90;;;;;;5059210;28;20901;-68
2022/03/17 12:37:18;;;;;;;11.30;5.03;;;10.20;99.90;;;;;;5075741;28;20411;-69
2022/03/17 12:39:49;;;;;;;7.07;3.40;;;10.40;99.90;;;;;;5076424;28;20436;-68
2022/03/17 12:42:24;;;;;;;7.83;4.40;;;10.40;99.90;;;;;;5075689;28;20946;-69
2022/03/17 12:44:57;;;;;;;10.90;4.60;;;10.50;99.90;;;;;;5041000;28;20475;-70
2022/03/17 12:47:28;;;;;;;5.30;3.70;;;10.30;99.90;;;;;;5035188;28;20484;-68
2022/03/17 12:49:56;;;;;;;8.77;4.40;;;10.40;99.90;;;;;;5017663;28;20870;-67
2022/03/17 12:52:25;;;;;;;11.53;4.00;;;10.50;99.90;;;;;;5034498;28;20465;-69